Hofa Park, Wisconsin
Current Conditions -  °F | °C
As of 11:53 AM on Sunday 25 Jan 2015 (Local Time) from KGRB Reporting Station
Few Clouds Few Clouds  
Wind Chill:   Ceiling: Unl
Heat Index: 19°   Visibility: 10mi
Dew Point: 11°   Wind: 23mph
Humidity: 71%   Direction: 40°NE
Pressure: 30.03"   Gusts: NA
Location:  44.5116°N, 88.3076°W
Report Text: KGRB 251753Z 04020KT 10SM FEW017 M07/M12 A3003 RMK AO2 PK WND 03026/1710 SNE33 SLP182 P0000 60000 T10721117 11067 21083 51017
Loading
Personal Weather Stations






























Interactive Weather Map New forecast layout! Learn more

10-Day Weather Forecast

Advertisements
Track Severe Weather on mobile